createdAt,value
2018-06-24T00:00:20.604Z,54.3
2018-06-24T00:01:20.423Z,54.25
2018-06-24T00:02:20.539Z,54.26
2018-06-24T00:03:20.684Z,54.33
2018-06-24T00:04:20.505Z,54.27
2018-06-24T00:05:20.409Z,54.27
2018-06-24T00:06:20.644Z,54.25
2018-06-24T00:07:20.621Z,54.31
2018-06-24T00:08:20.777Z,54.38
2018-06-24T00:09:20.542Z,54.31
2018-06-24T00:10:20.557Z,54.33
2018-06-24T00:11:20.593Z,54.34
2018-06-24T00:12:20.473Z,54.35
2018-06-24T00:13:20.726Z,54.32
2018-06-24T00:14:21.231Z,54.33
2018-06-24T00:15:20.720Z,54.28
2018-06-24T00:16:20.538Z,54.29
2018-06-24T00:17:20.491Z,54.29
2018-06-24T00:18:20.488Z,54.3
2018-06-24T00:19:20.389Z,54.37
2018-06-24T00:20:20.514Z,54.35
2018-06-24T00:21:20.447Z,54.33
2018-06-24T00:22:20.369Z,54.31
2018-06-24T00:23:20.395Z,54.34
2018-06-24T00:24:20.396Z,54.27
2018-06-24T00:25:20.463Z,54.33
2018-06-24T00:26:20.643Z,54.33
2018-06-24T00:27:20.490Z,54.3
2018-06-24T00:28:20.578Z,54.36
2018-06-24T00:29:20.521Z,54.36
2018-06-24T00:30:20.755Z,54.38
2018-06-24T00:31:20.498Z,54.35
2018-06-24T00:32:20.422Z,54.37
2018-06-24T00:33:20.755Z,54.39
2018-06-24T00:34:20.613Z,54.33
2018-06-24T00:35:20.938Z,54.34
2018-06-24T00:36:20.787Z,54.29
2018-06-24T00:37:20.433Z,54.33
2018-06-24T00:38:20.725Z,54.35
2018-06-24T00:39:20.456Z,54.27
2018-06-24T00:40:20.747Z,54.34
2018-06-24T00:41:20.503Z,54.37
2018-06-24T00:42:20.489Z,54.36
2018-06-24T00:43:20.637Z,54.41
2018-06-24T00:44:20.657Z,54.37
2018-06-24T00:45:20.467Z,54.38
2018-06-24T00:46:20.485Z,54.38
2018-06-24T00:47:20.518Z,54.42
2018-06-24T00:48:20.514Z,54.46
2018-06-24T00:49:20.563Z,54.44
2018-06-24T00:50:20.490Z,54.41
2018-06-24T00:51:20.634Z,54.4
2018-06-24T00:52:20.479Z,54.37
2018-06-24T00:53:20.357Z,54.37
2018-06-24T00:54:20.543Z,54.29
2018-06-24T00:55:20.391Z,54.37
2018-06-24T00:56:20.539Z,54.38
2018-06-24T00:57:20.458Z,54.44
2018-06-24T00:58:20.630Z,54.43
2018-06-24T00:59:20.631Z,54.45
2018-06-24T01:00:20.455Z,54.4
2018-06-24T01:01:20.529Z,54.42
2018-06-24T01:02:20.439Z,54.38
2018-06-24T01:03:20.564Z,54.44
2018-06-24T01:04:20.362Z,54.39
2018-06-24T01:05:20.577Z,54.38
2018-06-24T01:06:20.386Z,54.4
2018-06-24T01:07:20.934Z,54.39
2018-06-24T01:08:20.444Z,54.41
2018-06-24T01:09:20.529Z,54.41
2018-06-24T01:10:20.716Z,54.45
2018-06-24T01:11:20.672Z,54.48
2018-06-24T01:12:20.561Z,54.45
2018-06-24T01:13:20.338Z,54.49
2018-06-24T01:14:20.613Z,54.5
2018-06-24T01:15:20.480Z,54.48
2018-06-24T01:16:20.729Z,54.46
2018-06-24T01:17:20.405Z,54.47
2018-06-24T01:18:20.445Z,54.44
2018-06-24T01:19:20.724Z,54.5
2018-06-24T01:20:20.716Z,54.52
2018-06-24T01:21:20.384Z,54.52
2018-06-24T01:22:20.445Z,54.55
2018-06-24T01:23:20.420Z,54.49
2018-06-24T01:24:20.605Z,54.46
2018-06-24T01:25:20.461Z,54.54
2018-06-24T01:26:20.774Z,54.57
2018-06-24T01:27:20.446Z,54.5
2018-06-24T01:28:20.705Z,54.54
2018-06-24T01:29:20.514Z,54.47
2018-06-24T01:30:20.666Z,54.47
2018-06-24T01:31:20.367Z,54.51
2018-06-24T01:32:20.501Z,54.54
2018-06-24T01:33:20.542Z,54.5
2018-06-24T01:34:20.478Z,54.47
2018-06-24T01:35:20.506Z,54.56
2018-06-24T01:36:20.614Z,54.5
2018-06-24T01:37:20.456Z,54.51
2018-06-24T01:38:20.585Z,54.55
2018-06-24T01:39:20.416Z,54.49
2018-06-24T01:40:20.382Z,54.53
2018-06-24T01:41:20.558Z,54.51
2018-06-24T01:42:20.429Z,54.51
2018-06-24T01:43:20.522Z,54.53
2018-06-24T01:44:20.692Z,54.54
2018-06-24T01:45:20.517Z,54.52
2018-06-24T01:46:20.471Z,54.53
2018-06-24T01:47:20.569Z,54.51
2018-06-24T01:48:20.578Z,54.5
2018-06-24T01:49:20.494Z,54.49
2018-06-24T01:50:20.346Z,54.46
2018-06-24T01:51:20.441Z,54.51
2018-06-24T01:52:20.420Z,54.49
2018-06-24T01:53:20.562Z,54.51
2018-06-24T01:54:20.764Z,54.54
2018-06-24T01:55:20.407Z,54.51
2018-06-24T01:56:20.502Z,54.51
2018-06-24T01:57:20.481Z,54.51
2018-06-24T01:58:30.494Z,54.55
2018-06-24T01:59:20.570Z,54.56
2018-06-24T02:00:20.401Z,54.54
2018-06-24T02:01:20.464Z,54.55
2018-06-24T02:02:20.511Z,54.52
2018-06-24T02:03:20.588Z,54.54
2018-06-24T02:04:20.540Z,54.6
2018-06-24T02:05:20.547Z,54.56
2018-06-24T02:06:20.700Z,54.55
2018-06-24T02:07:20.444Z,54.57
2018-06-24T02:08:20.604Z,54.58
2018-06-24T02:09:20.521Z,54.52
2018-06-24T02:10:20.542Z,54.52
2018-06-24T02:11:20.604Z,54.55
2018-06-24T02:12:20.416Z,54.54
2018-06-24T02:13:20.689Z,54.54
2018-06-24T02:14:20.723Z,54.49
2018-06-24T02:15:20.552Z,54.53
2018-06-24T02:16:20.434Z,54.5
2018-06-24T02:17:20.626Z,54.5
2018-06-24T02:18:20.697Z,54.55
2018-06-24T02:19:20.724Z,54.59
2018-06-24T02:20:21.056Z,54.54
2018-06-24T02:21:20.618Z,54.54
2018-06-24T02:22:20.605Z,54.57
2018-06-24T02:23:20.531Z,54.56
2018-06-24T02:24:20.443Z,54.58
2018-06-24T02:25:20.469Z,54.57
2018-06-24T02:26:20.862Z,54.56
2018-06-24T02:27:20.536Z,54.58
2018-06-24T02:28:20.711Z,54.58
2018-06-24T02:29:20.389Z,54.59
2018-06-24T02:30:20.712Z,54.57
2018-06-24T02:31:20.532Z,54.57
2018-06-24T02:32:20.584Z,54.53
2018-06-24T02:33:20.564Z,54.47
2018-06-24T02:34:20.502Z,54.55
2018-06-24T02:35:20.768Z,54.55
2018-06-24T02:36:21.220Z,54.58
2018-06-24T02:37:20.412Z,54.58
2018-06-24T02:38:20.626Z,54.61
2018-06-24T02:39:20.460Z,54.6
2018-06-24T02:40:20.838Z,54.56
2018-06-24T02:41:20.447Z,54.56
2018-06-24T02:42:20.737Z,54.55
2018-06-24T02:43:20.371Z,54.57
2018-06-24T02:44:20.550Z,54.54
2018-06-24T02:45:20.743Z,54.58
2018-06-24T02:46:20.789Z,54.61
2018-06-24T02:47:20.714Z,54.64
2018-06-24T02:48:20.437Z,54.66
2018-06-24T02:49:20.515Z,54.63
2018-06-24T02:50:20.510Z,54.62
2018-06-24T02:51:20.570Z,54.56
2018-06-24T02:52:20.400Z,54.63
2018-06-24T02:53:20.513Z,54.59
2018-06-24T02:54:20.523Z,54.6
2018-06-24T02:55:20.416Z,54.61
2018-06-24T02:56:20.690Z,54.6
2018-06-24T02:57:20.730Z,54.62
2018-06-24T02:58:20.569Z,54.63
2018-06-24T02:59:20.437Z,54.6
2018-06-24T03:00:20.441Z,54.61
2018-06-24T03:01:20.416Z,54.66
2018-06-24T03:02:20.584Z,54.64
2018-06-24T03:03:20.520Z,54.63
2018-06-24T03:04:20.660Z,54.62
2018-06-24T03:05:20.459Z,54.59
2018-06-24T03:06:20.487Z,54.59
2018-06-24T03:07:20.439Z,54.67
2018-06-24T03:08:20.632Z,54.68
2018-06-24T03:09:20.555Z,54.63
2018-06-24T03:10:20.440Z,54.63
2018-06-24T03:11:20.537Z,54.65
2018-06-24T03:12:20.556Z,54.64
2018-06-24T03:13:20.378Z,54.67
2018-06-24T03:14:20.538Z,54.63
2018-06-24T03:15:20.580Z,54.64
2018-06-24T03:16:20.458Z,54.64
2018-06-24T03:17:20.508Z,54.66
2018-06-24T03:18:20.421Z,54.68
2018-06-24T03:19:20.293Z,54.64
2018-06-24T03:20:20.458Z,54.63
2018-06-24T03:21:20.500Z,54.67
2018-06-24T03:22:20.636Z,54.69
2018-06-24T03:23:20.661Z,54.7
2018-06-24T03:24:20.384Z,54.65
2018-06-24T03:25:20.499Z,54.66
2018-06-24T03:26:20.363Z,54.63
2018-06-24T03:27:20.557Z,54.66
2018-06-24T03:28:20.458Z,54.69
2018-06-24T03:29:20.735Z,54.7
2018-06-24T03:30:20.441Z,54.67
2018-06-24T03:31:20.436Z,54.67
2018-06-24T03:32:20.382Z,54.69
2018-06-24T03:33:20.459Z,54.66
2018-06-24T03:34:20.740Z,54.69
2018-06-24T03:35:20.535Z,54.65
2018-06-24T03:36:20.669Z,54.69
2018-06-24T03:37:20.327Z,54.61
2018-06-24T03:38:20.410Z,54.65
2018-06-24T03:39:20.414Z,54.67
2018-06-24T03:40:20.596Z,54.7
2018-06-24T03:41:20.589Z,54.72
2018-06-24T03:42:20.388Z,54.77
2018-06-24T03:43:20.599Z,54.71
2018-06-24T03:44:20.529Z,54.76
2018-06-24T03:45:20.569Z,54.78
2018-06-24T03:46:20.335Z,54.79
2018-06-24T03:47:20.368Z,54.8
2018-06-24T03:48:20.542Z,54.78
2018-06-24T03:49:20.488Z,54.78
2018-06-24T03:50:20.504Z,54.8
2018-06-24T03:51:20.707Z,54.79
2018-06-24T03:52:20.587Z,54.76
2018-06-24T03:53:20.554Z,54.77
2018-06-24T03:54:20.450Z,54.72
2018-06-24T03:55:20.354Z,54.73
2018-06-24T03:56:20.451Z,54.72
2018-06-24T03:57:20.624Z,54.72
2018-06-24T03:58:20.517Z,54.77
2018-06-24T03:59:20.742Z,54.78
2018-06-24T04:00:20.698Z,54.72
2018-06-24T04:01:20.450Z,54.73
2018-06-24T04:02:20.412Z,54.79
2018-06-24T04:03:20.464Z,54.72
2018-06-24T04:04:20.441Z,54.79
2018-06-24T04:05:20.647Z,54.8
2018-06-24T04:06:20.482Z,54.72
2018-06-24T04:07:20.696Z,54.77
2018-06-24T04:08:20.531Z,54.78
2018-06-24T04:09:20.455Z,54.82
2018-06-24T04:10:20.717Z,54.81
2018-06-24T04:11:20.616Z,54.83
2018-06-24T04:12:20.526Z,54.82
2018-06-24T04:13:20.348Z,54.79
2018-06-24T04:14:20.541Z,54.85
2018-06-24T04:15:20.379Z,54.83
2018-06-24T04:16:20.710Z,54.79
2018-06-24T04:17:20.584Z,54.78
2018-06-24T04:18:20.796Z,54.78
2018-06-24T04:19:20.545Z,54.83
2018-06-24T04:20:20.557Z,54.81
2018-06-24T04:21:20.423Z,54.77
2018-06-24T04:22:30.459Z,54.82
2018-06-24T04:23:20.590Z,54.83
2018-06-24T04:24:20.429Z,54.84
2018-06-24T04:25:20.565Z,54.86
2018-06-24T04:26:20.536Z,54.84
2018-06-24T04:27:20.417Z,54.85
2018-06-24T04:28:20.571Z,54.81
2018-06-24T04:29:20.518Z,54.82
2018-06-24T04:30:20.439Z,54.86
2018-06-24T04:31:20.396Z,54.86
2018-06-24T04:32:20.578Z,54.88
2018-06-24T04:33:20.401Z,54.89
2018-06-24T04:34:20.701Z,54.86
2018-06-24T04:35:20.504Z,54.89
2018-06-24T04:36:20.690Z,54.85
2018-06-24T04:37:20.443Z,54.91
2018-06-24T04:38:20.312Z,54.9
2018-06-24T04:39:20.649Z,54.87
2018-06-24T04:40:20.356Z,54.9
2018-06-24T04:41:20.579Z,54.87
2018-06-24T04:42:20.461Z,54.9
2018-06-24T04:43:20.519Z,54.9
2018-06-24T04:44:20.386Z,54.9
2018-06-24T04:45:20.709Z,54.92
2018-06-24T04:46:20.531Z,54.88
2018-06-24T04:47:20.501Z,54.89
2018-06-24T04:48:20.414Z,54.91
2018-06-24T04:49:20.354Z,54.92
2018-06-24T04:50:20.400Z,54.96
2018-06-24T04:51:20.632Z,54.9
2018-06-24T04:52:20.778Z,54.93
2018-06-24T04:53:20.329Z,54.94
2018-06-24T04:54:20.381Z,54.92
2018-06-24T04:55:20.446Z,54.89
2018-06-24T04:56:20.567Z,54.9
2018-06-24T04:57:20.434Z,54.94
2018-06-24T04:58:20.381Z,54.92
2018-06-24T04:59:20.519Z,54.97
2018-06-24T05:00:20.504Z,54.99
2018-06-24T05:01:20.709Z,54.94
2018-06-24T05:02:20.335Z,54.93
2018-06-24T05:03:20.497Z,54.92
2018-06-24T05:04:20.373Z,54.92
2018-06-24T05:05:20.578Z,54.93
2018-06-24T05:06:20.834Z,54.96
2018-06-24T05:07:20.520Z,54.91
2018-06-24T05:08:20.753Z,54.88
2018-06-24T05:09:20.589Z,54.9
2018-06-24T05:10:20.485Z,54.87
2018-06-24T05:11:20.354Z,54.91
2018-06-24T05:12:20.724Z,54.89
2018-06-24T05:13:20.457Z,54.9
2018-06-24T05:14:20.449Z,54.92
2018-06-24T05:15:20.585Z,54.92
2018-06-24T05:16:20.600Z,54.9
2018-06-24T05:17:20.576Z,54.91
2018-06-24T05:18:20.379Z,54.88
2018-06-24T05:19:20.315Z,54.9
2018-06-24T05:20:20.303Z,54.9
2018-06-24T05:21:20.562Z,54.88
2018-06-24T05:22:20.370Z,54.92
2018-06-24T05:23:20.435Z,54.95
2018-06-24T05:24:20.295Z,54.93
2018-06-24T05:25:20.646Z,54.92
2018-06-24T05:26:20.504Z,55
2018-06-24T05:27:20.560Z,54.92
2018-06-24T05:28:20.381Z,54.9
2018-06-24T05:29:20.406Z,54.97
2018-06-24T05:30:20.392Z,54.96
2018-06-24T05:31:20.527Z,54.92
2018-06-24T05:32:20.590Z,54.92
2018-06-24T05:33:20.390Z,54.9
2018-06-24T05:34:20.308Z,54.95
2018-06-24T05:35:20.435Z,54.94
2018-06-24T05:36:20.493Z,54.92
2018-06-24T05:37:20.500Z,54.92
2018-06-24T05:38:20.276Z,54.91
2018-06-24T05:39:20.481Z,54.93
2018-06-24T05:40:20.583Z,55
2018-06-24T05:41:20.657Z,54.93
2018-06-24T05:42:20.486Z,54.91
2018-06-24T05:43:20.416Z,54.91
2018-06-24T05:44:20.568Z,54.95
2018-06-24T05:45:20.368Z,54.98
2018-06-24T05:46:20.505Z,54.98
2018-06-24T05:47:20.357Z,54.96
2018-06-24T05:48:20.504Z,54.95
2018-06-24T05:49:20.328Z,54.94
2018-06-24T05:50:20.400Z,54.96
2018-06-24T05:51:20.464Z,54.99
2018-06-24T05:52:20.506Z,54.96
2018-06-24T05:53:20.341Z,54.96
2018-06-24T05:54:20.957Z,54.99
2018-06-24T05:55:20.783Z,54.94
2018-06-24T05:56:20.299Z,54.98
2018-06-24T05:57:20.293Z,54.96
2018-06-24T05:58:20.511Z,54.97
2018-06-24T05:59:20.481Z,54.99
2018-06-24T06:00:20.502Z,54.93
2018-06-24T06:01:20.558Z,54.96
2018-06-24T06:02:20.366Z,54.96
2018-06-24T06:03:20.483Z,54.99
2018-06-24T06:04:20.523Z,54.98
2018-06-24T06:05:20.371Z,54.97
2018-06-24T06:06:20.418Z,54.98
2018-06-24T06:07:20.548Z,55
2018-06-24T06:08:20.580Z,54.96
2018-06-24T06:09:20.414Z,54.99
2018-06-24T06:10:21.594Z,54.99
2018-06-24T06:11:20.539Z,55.01
2018-06-24T06:12:20.434Z,54.98
2018-06-24T06:13:20.477Z,54.96
2018-06-24T06:14:20.341Z,54.98
2018-06-24T06:15:20.328Z,54.99
2018-06-24T06:16:20.407Z,55
2018-06-24T06:17:20.370Z,55.02
2018-06-24T06:18:20.374Z,55.03
2018-06-24T06:19:20.520Z,54.98
2018-06-24T06:20:20.468Z,54.98
2018-06-24T06:21:20.415Z,54.98
2018-06-24T06:22:20.464Z,55.03
2018-06-24T06:23:20.332Z,55.03
2018-06-24T06:24:20.526Z,54.99
2018-06-24T06:25:20.539Z,55.05
2018-06-24T06:26:20.307Z,55.03
2018-06-24T06:27:20.393Z,55.03
2018-06-24T06:28:20.325Z,54.99
2018-06-24T06:29:20.491Z,55
2018-06-24T06:30:22.009Z,55.01
2018-06-24T06:31:20.316Z,55.01
2018-06-24T06:32:20.424Z,55.01
2018-06-24T06:33:20.445Z,55.03
2018-06-24T06:34:20.557Z,55.01
2018-06-24T06:35:20.389Z,54.96
2018-06-24T06:36:20.401Z,54.99
2018-06-24T06:37:20.467Z,54.98
2018-06-24T06:38:20.524Z,54.99
2018-06-24T06:39:20.459Z,55
2018-06-24T06:40:20.539Z,55.01
2018-06-24T06:41:20.320Z,54.99
2018-06-24T06:42:20.438Z,54.99
2018-06-24T06:43:20.404Z,54.93
2018-06-24T06:44:20.405Z,55
2018-06-24T06:45:22.025Z,55.02
2018-06-24T06:46:20.457Z,55.03
2018-06-24T06:47:20.409Z,55.02
2018-06-24T06:48:20.475Z,55
2018-06-24T06:49:20.435Z,55.03
2018-06-24T06:50:20.400Z,54.98
2018-06-24T06:51:20.399Z,55.01
2018-06-24T06:52:20.501Z,55.04
2018-06-24T06:53:20.404Z,55.05
2018-06-24T06:54:20.482Z,55.02
2018-06-24T06:55:20.542Z,55.02
2018-06-24T06:56:20.407Z,55.03
2018-06-24T06:57:20.419Z,54.98
2018-06-24T06:58:20.502Z,55.03
2018-06-24T06:59:20.425Z,55.05
2018-06-24T07:00:20.443Z,54.99
2018-06-24T07:01:20.771Z,55.01
2018-06-24T07:02:20.806Z,53.86
2018-06-24T07:03:20.961Z,52.49
2018-06-24T07:04:20.466Z,52.65
2018-06-24T07:05:20.776Z,52.49
2018-06-24T07:06:20.688Z,52.49
2018-06-24T07:07:20.541Z,52.64
2018-06-24T07:08:20.542Z,52.69
2018-06-24T07:09:20.521Z,52.71
2018-06-24T07:10:20.684Z,52.7
2018-06-24T07:11:20.539Z,52.81
2018-06-24T07:12:20.513Z,52.67
2018-06-24T07:13:20.832Z,52.5
2018-06-24T07:14:21.496Z,52.58
2018-06-24T07:15:20.531Z,52.53
2018-06-24T07:16:20.545Z,52.64
2018-06-24T07:17:20.481Z,52.66
2018-06-24T07:18:20.559Z,52.35
2018-06-24T07:19:20.552Z,52.57
2018-06-24T07:20:20.502Z,52.77
2018-06-24T07:21:20.588Z,53.04
2018-06-24T07:22:20.544Z,52.89
2018-06-24T07:23:20.716Z,52.97
2018-06-24T07:24:20.595Z,52.66
2018-06-24T07:25:20.602Z,52.7
2018-06-24T07:26:20.608Z,52.81
2018-06-24T07:27:20.630Z,53.01
2018-06-24T07:28:20.585Z,52.87
2018-06-24T07:29:20.813Z,52.93
2018-06-24T07:30:20.621Z,52.95
2018-06-24T07:31:20.570Z,52.96
2018-06-24T07:32:20.640Z,53.06
2018-06-24T07:33:21.459Z,53.06
2018-06-24T07:34:20.755Z,52.85
2018-06-24T07:35:20.599Z,52.91
2018-06-24T07:36:20.633Z,52.99
2018-06-24T07:37:20.568Z,52.81
2018-06-24T07:38:20.567Z,52.86
2018-06-24T07:39:21.146Z,52.9
2018-06-24T07:40:20.568Z,53
2018-06-24T07:41:20.636Z,52.88
2018-06-24T07:42:20.664Z,52.96
2018-06-24T07:43:20.642Z,52.89
2018-06-24T07:44:20.565Z,52.96
2018-06-24T07:45:20.689Z,53.09
2018-06-24T07:46:20.660Z,53.06
2018-06-24T07:47:20.665Z,52.91
2018-06-24T07:48:20.686Z,53.03
2018-06-24T07:49:20.662Z,53.02
2018-06-24T07:50:21.459Z,53.06
2018-06-24T07:51:20.739Z,53.06
2018-06-24T07:52:20.701Z,52.95
2018-06-24T07:53:20.636Z,53.08
2018-06-24T07:54:20.745Z,53.04
2018-06-24T07:55:20.702Z,53.07
2018-06-24T07:56:20.637Z,53.13
2018-06-24T07:57:21.273Z,53.18
2018-06-24T07:58:20.739Z,53.18
2018-06-24T07:59:20.456Z,53.08
2018-06-24T08:00:20.710Z,53.14
2018-06-24T08:01:20.781Z,53.12
2018-06-24T08:02:20.281Z,53.15
2018-06-24T08:03:21.266Z,53.05
2018-06-24T08:04:20.867Z,53.15
2018-06-24T08:05:21.594Z,53.07
2018-06-24T08:06:20.371Z,52.99
2018-06-24T08:07:20.732Z,53.21
2018-06-24T08:08:20.705Z,53.28
2018-06-24T08:09:20.867Z,53.29
2018-06-24T08:10:20.923Z,53.21
2018-06-24T08:11:21.019Z,53.18
2018-06-24T08:12:20.769Z,53.26
2018-06-24T08:13:20.379Z,53.3
2018-06-24T08:14:20.436Z,53.26
2018-06-24T08:15:20.773Z,53.3
2018-06-24T08:16:20.344Z,53.3
2018-06-24T08:17:20.755Z,53.33
2018-06-24T08:18:20.322Z,53.31
2018-06-24T08:19:20.766Z,53.27
2018-06-24T08:20:20.372Z,53.33
2018-06-24T08:21:20.384Z,53.45
2018-06-24T08:22:20.408Z,53.49
2018-06-24T08:23:20.378Z,53.53
2018-06-24T08:24:20.355Z,53.57
2018-06-24T08:25:20.248Z,53.55
2018-06-24T08:26:20.457Z,53.48
2018-06-24T08:27:20.622Z,53.48
2018-06-24T08:28:20.431Z,53.47
2018-06-24T08:29:20.336Z,53.5
2018-06-24T08:30:20.496Z,53.5
2018-06-24T08:31:20.412Z,53.56
2018-06-24T08:32:20.454Z,53.62
2018-06-24T08:33:20.861Z,53.56
2018-06-24T08:34:20.461Z,53.6
2018-06-24T08:35:20.481Z,53.49
2018-06-24T08:36:20.349Z,53.47
2018-06-24T08:37:20.489Z,53.54
2018-06-24T08:38:45.489Z,53.53
2018-06-24T08:39:20.879Z,53.57
2018-06-24T08:40:20.366Z,53.62
2018-06-24T08:41:20.433Z,53.53
2018-06-24T08:42:20.315Z,53.61
2018-06-24T08:43:20.639Z,53.63
2018-06-24T08:44:20.480Z,53.55
2018-06-24T08:45:20.580Z,53.43
2018-06-24T08:46:20.581Z,53.5
2018-06-24T08:47:20.993Z,53.49
2018-06-24T08:48:20.508Z,53.47
2018-06-24T08:49:20.468Z,53.43
2018-06-24T08:50:20.386Z,53.2
2018-06-24T08:51:20.518Z,53.28
2018-06-24T08:52:20.430Z,53.27
2018-06-24T08:53:20.304Z,53.09
2018-06-24T08:54:21.089Z,52.84
2018-06-24T08:55:20.658Z,52.84
2018-06-24T08:56:20.326Z,52.84
2018-06-24T08:57:20.545Z,52.77
2018-06-24T08:58:20.549Z,52.79
2018-06-24T08:59:20.377Z,52.63
2018-06-24T09:00:20.391Z,52.7
2018-06-24T09:01:20.526Z,52.77
2018-06-24T09:02:20.472Z,52.77
2018-06-24T09:03:20.580Z,52.94
2018-06-24T09:04:20.612Z,52.98
2018-06-24T09:05:20.468Z,52.89
2018-06-24T09:06:20.436Z,52.98
2018-06-24T09:07:20.541Z,53.08
2018-06-24T09:08:20.355Z,53.14
2018-06-24T09:09:20.469Z,53.03
2018-06-24T09:10:20.385Z,53.09
2018-06-24T09:11:20.382Z,53.05
2018-06-24T09:12:20.445Z,53.06
2018-06-24T09:13:20.459Z,53.01
2018-06-24T09:14:20.610Z,52.79
2018-06-24T09:15:20.337Z,52.77
2018-06-24T09:16:20.404Z,52.83
2018-06-24T09:17:20.357Z,52.85
2018-06-24T09:18:20.568Z,52.97
2018-06-24T09:19:20.364Z,52.98
2018-06-24T09:20:20.510Z,52.93
2018-06-24T09:21:20.995Z,53.04
2018-06-24T09:22:20.600Z,53.08
2018-06-24T09:23:20.451Z,53.15
2018-06-24T09:24:20.372Z,53.19
2018-06-24T09:25:20.666Z,53.18
2018-06-24T09:26:20.841Z,53.17
2018-06-24T09:27:20.531Z,53.21
2018-06-24T09:28:20.402Z,53.13
2018-06-24T09:29:20.481Z,53.11
2018-06-24T09:30:20.411Z,53.1
2018-06-24T09:31:20.486Z,53.09
2018-06-24T09:32:20.448Z,53.03
2018-06-24T09:33:20.450Z,52.99
2018-06-24T09:34:20.612Z,53.08
2018-06-24T09:35:20.498Z,53.1
2018-06-24T09:36:20.498Z,53.24
2018-06-24T09:37:20.472Z,53.37
2018-06-24T09:38:20.568Z,53.27
2018-06-24T09:39:20.510Z,52.87
2018-06-24T09:40:20.482Z,52.59
2018-06-24T09:41:20.546Z,52.93
2018-06-24T09:42:20.644Z,53.09
2018-06-24T09:43:20.695Z,53.33
2018-06-24T09:44:20.460Z,53.31
2018-06-24T09:45:20.518Z,53.43
2018-06-24T09:46:20.637Z,53.37
2018-06-24T09:47:20.547Z,53.32
2018-06-24T09:48:20.533Z,53.43
2018-06-24T09:49:20.550Z,53.41
2018-06-24T09:50:20.536Z,53.5
2018-06-24T09:51:20.574Z,53.44
2018-06-24T09:52:20.520Z,53.39
2018-06-24T09:53:20.610Z,53.48
2018-06-24T09:54:20.575Z,53.47
2018-06-24T09:55:20.751Z,53.56
2018-06-24T09:56:20.688Z,53.54
2018-06-24T09:57:20.615Z,53.57
2018-06-24T09:58:20.599Z,53.55
2018-06-24T09:59:20.611Z,53.55
2018-06-24T10:00:20.610Z,53.62
2018-06-24T10:01:20.563Z,53.63
2018-06-24T10:02:20.649Z,53.67
2018-06-24T10:03:20.987Z,53.76
2018-06-24T10:04:20.524Z,53.67
2018-06-24T10:05:20.637Z,53.73
2018-06-24T10:06:20.677Z,53.72
2018-06-24T10:07:20.535Z,53.69
2018-06-24T10:08:20.640Z,53.74
2018-06-24T10:09:20.591Z,53.96
2018-06-24T10:10:20.657Z,54.04
2018-06-24T10:11:20.585Z,53.92
2018-06-24T10:12:20.624Z,53.99
2018-06-24T10:13:20.563Z,54.04
2018-06-24T10:14:20.682Z,53.97
2018-06-24T10:15:20.577Z,53.98
2018-06-24T10:16:20.599Z,53.96
2018-06-24T10:17:20.685Z,53.97
2018-06-24T10:18:20.651Z,53.98
2018-06-24T10:19:20.829Z,53.92
2018-06-24T10:20:22.093Z,54.04
2018-06-24T10:21:20.198Z,54.22
2018-06-24T10:22:20.699Z,54.19
2018-06-24T10:23:20.618Z,54.06
2018-06-24T10:24:20.652Z,54.08
2018-06-24T10:25:20.809Z,54.09
2018-06-24T10:26:20.445Z,54.12
2018-06-24T10:27:20.702Z,54.08
2018-06-24T10:28:20.704Z,54.11
2018-06-24T10:29:21.049Z,54.08
2018-06-24T10:30:20.241Z,54.11
2018-06-24T10:31:20.725Z,54.16
2018-06-24T10:32:20.846Z,54.19
2018-06-24T10:33:20.706Z,54.14
2018-06-24T10:34:20.763Z,54.21
2018-06-24T10:35:20.868Z,54.22
2018-06-24T10:36:20.669Z,54.3
2018-06-24T10:37:20.303Z,54.29
2018-06-24T10:38:20.743Z,54.26
2018-06-24T10:39:20.287Z,54.26
2018-06-24T10:40:21.264Z,54.3
2018-06-24T10:41:20.281Z,54.35
2018-06-24T10:42:20.336Z,54.38
2018-06-24T10:43:20.898Z,54.36
2018-06-24T10:44:20.299Z,54.39
2018-06-24T10:45:20.740Z,54.46
2018-06-24T10:46:20.721Z,54.46
2018-06-24T10:47:20.750Z,54.45
2018-06-24T10:48:20.370Z,54.42
2018-06-24T10:49:20.354Z,54.45
2018-06-24T10:50:20.236Z,54.42
2018-06-24T10:51:20.591Z,54.37
2018-06-24T10:52:20.308Z,54.56
2018-06-24T10:53:20.534Z,54.44
2018-06-24T10:54:20.426Z,54.47
2018-06-24T10:55:20.662Z,54.49
2018-06-24T10:56:20.314Z,54.51
2018-06-24T10:57:20.411Z,54.54
2018-06-24T10:58:20.858Z,54.56
2018-06-24T10:59:20.188Z,54.45
2018-06-24T11:00:20.281Z,54.46
2018-06-24T11:01:20.395Z,54.45
2018-06-24T11:02:21.479Z,54.38
2018-06-24T11:03:20.640Z,54.4
2018-06-24T11:04:20.394Z,54.48
2018-06-24T11:05:20.243Z,54.53
2018-06-24T11:06:20.397Z,54.41
2018-06-24T11:07:20.606Z,54.41
2018-06-24T11:08:20.252Z,54.44
2018-06-24T11:09:20.368Z,54.47
2018-06-24T11:10:20.425Z,54.47
2018-06-24T11:11:20.527Z,54.52
2018-06-24T11:12:20.483Z,54.55
2018-06-24T11:13:20.622Z,54.49
2018-06-24T11:14:20.401Z,54.48
2018-06-24T11:15:20.486Z,54.44
2018-06-24T11:16:20.298Z,54.49
2018-06-24T11:17:20.267Z,54.4
2018-06-24T11:18:20.432Z,54.51
2018-06-24T11:19:20.337Z,54.47
2018-06-24T11:20:20.236Z,54.38
2018-06-24T11:21:20.266Z,54.45
2018-06-24T11:22:20.358Z,54.48
2018-06-24T11:23:20.387Z,54.48
2018-06-24T11:24:20.443Z,54.27
2018-06-24T11:25:20.403Z,54.46
2018-06-24T11:26:20.208Z,54.51
2018-06-24T11:27:20.345Z,54.63
2018-06-24T11:28:20.362Z,54.59
2018-06-24T11:29:20.251Z,54.55
2018-06-24T11:30:20.414Z,54.51
2018-06-24T11:31:20.224Z,54.36
2018-06-24T11:32:20.422Z,54.58
2018-06-24T11:33:20.432Z,54.62
2018-06-24T11:34:20.337Z,54.69
2018-06-24T11:35:20.272Z,54.69
2018-06-24T11:36:20.486Z,54.64
2018-06-24T11:37:20.563Z,54.55
2018-06-24T11:38:20.835Z,54.51
2018-06-24T11:39:20.467Z,54.55
2018-06-24T11:40:20.511Z,54.51
2018-06-24T11:41:20.584Z,54.51
2018-06-24T11:42:20.448Z,54.48
2018-06-24T11:43:20.433Z,54.49
2018-06-24T11:44:20.220Z,54.49
2018-06-24T11:45:20.480Z,54.5
2018-06-24T11:46:20.446Z,54.47
2018-06-24T11:47:20.482Z,54.55
2018-06-24T11:48:20.316Z,54.55
2018-06-24T11:49:20.542Z,54.48
2018-06-24T11:50:20.514Z,54.53
2018-06-24T11:51:20.730Z,54.57
2018-06-24T11:52:20.530Z,54.55
2018-06-24T11:53:20.313Z,54.51
2018-06-24T11:54:20.524Z,54.53
2018-06-24T11:55:20.327Z,54.52
2018-06-24T11:56:20.480Z,54.55
2018-06-24T11:57:20.387Z,54.53
2018-06-24T11:58:20.476Z,54.51
2018-06-24T11:59:20.379Z,54.54
2018-06-24T12:00:20.394Z,54.56
2018-06-24T12:01:20.433Z,54.63
2018-06-24T12:02:20.408Z,54.62
2018-06-24T12:03:20.516Z,54.65
2018-06-24T12:04:20.383Z,54.65
2018-06-24T12:05:20.628Z,54.64
2018-06-24T12:06:20.398Z,54.55
2018-06-24T12:07:20.385Z,54.51
2018-06-24T12:08:20.442Z,54.59
2018-06-24T12:09:20.448Z,54.72
2018-06-24T12:10:20.432Z,54.66
2018-06-24T12:11:20.459Z,54.72
2018-06-24T12:12:20.384Z,54.68
2018-06-24T12:13:20.407Z,54.68
2018-06-24T12:14:20.386Z,54.63
2018-06-24T12:15:20.646Z,54.81
2018-06-24T12:16:20.464Z,54.81
2018-06-24T12:17:20.490Z,54.75
2018-06-24T12:18:21.418Z,54.77
2018-06-24T12:19:20.479Z,54.76
2018-06-24T12:20:20.374Z,54.79
2018-06-24T12:21:20.495Z,54.83
2018-06-24T12:22:20.417Z,54.82
2018-06-24T12:23:20.517Z,54.74
2018-06-24T12:24:20.355Z,54.76
2018-06-24T12:25:20.390Z,54.73
2018-06-24T12:26:20.439Z,54.83
2018-06-24T12:27:20.293Z,54.7
2018-06-24T12:28:20.524Z,54.8
2018-06-24T12:29:20.406Z,54.85
2018-06-24T12:30:20.267Z,54.91
2018-06-24T12:31:20.214Z,54.89
2018-06-24T12:32:20.481Z,55.03
2018-06-24T12:33:20.301Z,54.97
2018-06-24T12:34:20.242Z,54.94
2018-06-24T12:35:20.435Z,54.94
2018-06-24T12:36:20.427Z,54.95
2018-06-24T12:37:20.641Z,54.85
2018-06-24T12:38:20.470Z,54.95
2018-06-24T12:39:20.237Z,55.04
2018-06-24T12:40:20.223Z,54.85
2018-06-24T12:41:20.443Z,54.65
2018-06-24T12:42:20.554Z,54.77
2018-06-24T12:43:20.833Z,54.9
2018-06-24T12:44:20.518Z,54.92
2018-06-24T12:45:20.470Z,54.98
2018-06-24T12:46:20.693Z,54.94
2018-06-24T12:47:20.361Z,54.99
2018-06-24T12:48:20.283Z,54.91
2018-06-24T12:49:20.186Z,54.97
2018-06-24T12:50:20.408Z,55.02
2018-06-24T12:51:20.438Z,54.98
2018-06-24T12:52:20.379Z,54.94
2018-06-24T12:53:20.337Z,54.93
2018-06-24T12:54:20.522Z,55
2018-06-24T12:55:20.376Z,54.93